Koosharem, UT (84744)

2:57 PM MDT on March 26, 2017 (GMT -0600)
Loa | | Change Station

Elev 7096 ft 38.40 °N, 111.66 °W | Updated 7 minutes ago

Partly Cloudy
Partly Cloudy
49.0 °F
Feels Like 44 °F
N
11.1
Wind Variable Wind from West
Gusts 20.0 mph

Today
High -- | Low -- °F
--% Chance of Precip.
Yesterday
High -- | Low -- °F
Precip. -- in
Pressure 29.88 in
Visibility 10.0 miles
Clouds Clear
Windchill 44 °F
Dew Point 21 °F
Humidity 33%
Rainfall 0.00 in
Snow Depth Not available.
7:21 AM 7:45 PM
Waning Crescent, 2% visible
METAR KBCE 262053Z AUTO 28009KT 10SM CLR 10/M08 A3004 RMK AO2 SLP116 T01001083 58006 TSNO
Pressure 29.88 in
Visibility 10.0 miles
Clouds Clear
Windchill 44 °F
Dew Point 21 °F
Humidity 33%
Rainfall 0.00 in
Snow Depth Not available.
7:21 AM 7:45 PM
Waning Crescent, 2% visible
METAR KBCE 262053Z AUTO 28009KT 10SM CLR 10/M08 A3004 RMK AO2 SLP116 T01001083 58006 TSNO

Get Severe Weather Alerts

Thanks for signing up!

Be on the lookout for a verification email in your inbox.

You'll start receiving the daily forecast at 8 AM.

×

10-Day Weather Forecast

Almanac

Astronomy

Mar. 26, 2017 Rise Set
Actual Time
Civil Twilight
Nautical Twilight
Astronomical Twilight
Moon
Length of Visible Light
Length of Day
Tomorrow will be .
, % of the Moon is Illuminated

Today's Extremes

State Highs State Lows

Community

WunderPhotos

Upload Photos

1,962,540 photos uploaded!

WunderBlog® & News

Nearby

Air Quality

  Air Quality AQ Index Pollutant
Not available.

Snow Depth

Station Depth Elevation

Earthquake Activity

City Distance Mag. Time & Date
Minimum magnitude displayed is 2.5.

Earthquake Activity

City Distance Mag. Time & Date
Minimum magnitude displayed is 2.5.

Coastal Water Temperatures

Place Temperature

Stations

Nearby Weather Stations

Station Location Temp. Windchill Dew Point Humidity Wind Precip. Elev Updated Type
                   

Watches & Warnings

There are currently no watches in effect.